Airfield :
LOGIN :

Register | Disclaimer

   EN    FR    IT 

 










Legend :    VFR   Marginal VFR   IFR   Intensive IFR   Very Intensive IFR
Visi :
Ceiling :
>= 8 km
>= 3000ft
5 to 8 km
1000 to 3000 ft
1500m to 5 km
500 to 1000 ft
800 to 1500m
200 to 500 ft
< 800m
< 200 ft
Symbols :   Thunderstorms  Fog  Heavy snow  Heavy precipitations  Wind > 20 kt
SIGMETs :     Misc.  Thunderstorms  Icing  Turbulence  Mountain Waves  Volcanic Ashes






- Airport Elevation : 26 ft
- IATA code : BIA


LFKB - Bastia

CURRENT METAR :
  • 171130Z AUTO 11006KT 080V140 9999 BKN031 BKN037 15/09 Q1027 NOSIG

EXPIRED METARs :
  • 171100Z AUTO 10006KT 080V140 9999 FEW030 BKN037 15/10 Q1027 NOSIG
  • 171030Z AUTO 13005KT 080V160 9999 SCT039 16/09 Q1027 NOSIG
  • 171000Z AUTO 13004KT 060V170 CAVOK 15/09 Q1027 NOSIG
  • 170930Z AUTO VRB02KT CAVOK 14/08 Q1028 NOSIG
  • 170900Z AUTO 20003KT 170V230 CAVOK 14/07 Q1028 NOSIG

TAF TAF LFKB
Valid from the 17 at 09:00 until the 18 at 09:00 UTC


170800Z 1709/1809 23004KT 9999 FEW035 SCT260 TX17/1712Z TN07/1804Z
BECMG 1709/1711 13008KT BKN023
BECMG 1718/1720 23005KT
ATIS : +33 4 95 59 19 40



MET'MAP, your aeronautical weather chart ! - Copyright ORBIFLY December 2007 - Disclaimer

ORBIFLY MET'MAP TEAM :

Programming & Development : Alexandra Zaïnal
Concept & original design : Baudouin d'Aumeries
Assistance for programming : Marc-Olivier Méhu
Technical & hardware support : Manuel Goepfert

Contact : metmap@orbifly.com




SOURCES & CREDITS :

   NOAA